LGAVLGKR

Guest
Details From LGAV - Athens Intl Airport Elefterios Venizel
To LGKR - IOANNIS KAPODISTRIAS INTL
Flight Number -
Tags decoded
Created
Modified
Stats Distance 214 nm / 396 km
Max Altitude 0 ft / 0 m
Waypoints 4
Social Downloads 2
Likes 0
Share VATSIM

Download

Looking for another format? Having issues loading an existing format? Contact us
Advertisement - Login to hide

Notes

Requested: LGAV RIMAX UL613 XANIS UL995 VARDI LGKR Unmatched points: UL613 UL995

Route

LGAV XANIS VARDI LGKR

ID Type Via Altitude Latitude Longitude Leg Dist Tot Dist Heading (true) Name
O LGAV APT - 0 ft / 0 m 37.93636˚ 23.94447˚ - 0 nm - Athens Intl Airport Elefterios Venizel
XANIS FIX - 0 ft / 0 m 38.57222˚ 22.18583˚ 91 nm 91 nm 295° / 294° -
VARDI FIX - 0 ft / 0 m 38.67194˚ 21.95111˚ 12 nm 103 nm 299° / 298° -
O LGKR APT - 0 ft / 0 m 39.60178˚ 19.91191˚ 110 nm 214 nm 301° / 300° IOANNIS KAPODISTRIAS INTL

Altitude Profile

Advertisement - Login to hide

Weather


0- 5 10 15 20 25 30 35+ Temperature / ° C

Clouds and Precipitation
Forecast for 2018-05-26 18:00 UTC. Updated 3 hours ago

Ground ~20,000 ft ~40,000 ft Winds

LGAV

Details ICAO LGAV (ATH)
Name Athens Intl Airport Elefterios Venizel
Region Greece
Timezone Europe/Athens (UTC+3.0)
Stats Elevation 308 ft / 94 m (AMSL)
Location 37.936357° 23.944470°
Runways 2
Magnetic Variation 4.528° E

METAR

LGAV 261920Z 01004KT 330V050 9999 FEW030 24/12 Q1015 NOSIG

Decode

TAF

TAF TAF LGAV 261700Z 2618/2718 01022G35KT 9999 FEW025

Decode

Departure Runways

ID Width Length Bearing (true) Bearing (mag) Surface Threshold Offset Overrun Length
03L 148 ft / 45 m 12,474 ft / 3,802 m 36.51° 31.98° Asphalt 984 ft / 300 m 393 ft / 120 m
03R 148 ft / 45 m 13,131 ft / 4,002 m 36.52° 31.99° Asphalt 984 ft / 300 m 393 ft / 120 m
21L 148 ft / 45 m 13,131 ft / 4,002 m 216.54° 212.01° Asphalt 984 ft / 300 m 393 ft / 120 m
21R 148 ft / 45 m 12,474 ft / 3,802 m 216.53° 212.00° Asphalt 984 ft / 300 m 393 ft / 120 m

LGKR

Details ICAO LGKR (CFU)
Name IOANNIS KAPODISTRIAS INTL
Region Greece
Timezone Europe/Athens (UTC+3.0)
Stats Elevation 6 ft / 2 m (AMSL)
Location 39.601779° 19.911908°
Runways 1
Magnetic Variation 4.143° E

METAR

LGKR 261920Z 34002KT CAVOK 24/20 Q1015 NOSIG

Decode

TAF

TAF LGKR 261700Z 2618/2718 35010KT 9999 FEW030 BECMG 2619/2621 06008KT BECMG 2710/2712 FEW020 SCT080

Decode

Destination Runways

ID Width Length Bearing (true) Bearing (mag) Surface Threshold Offset Overrun Length
17 148 ft / 45 m 7,815 ft / 2,382 m 168.81° 164.67° Asphalt 1,348 ft / 411 m 0 ft / 0 m
35 148 ft / 45 m 7,815 ft / 2,382 m 348.81° 344.67° Asphalt 213 ft / 65 m 0 ft / 0 m

Popular Alternatives